sensor_id;sensor_type;location;lat;lon;timestamp;temperature;humidity
3190;DHT22;1606;51.946;10.558;2022-11-15T00:01:15;14.80;99.90
3190;DHT22;1606;51.946;10.558;2022-11-15T00:03:43;14.80;99.90
3190;DHT22;1606;51.946;10.558;2022-11-15T00:06:12;14.60;99.90
3190;DHT22;1606;51.946;10.558;2022-11-15T00:08:40;14.60;99.90
3190;DHT22;1606;51.946;10.558;2022-11-15T00:11:10;14.80;99.90
3190;DHT22;1606;51.946;10.558;2022-11-15T00:13:40;14.70;99.90
3190;DHT22;1606;51.946;10.558;2022-11-15T00:16:09;14.90;99.90
3190;DHT22;1606;51.946;10.558;2022-11-15T00:18:37;14.90;99.90
3190;DHT22;1606;51.946;10.558;2022-11-15T00:21:08;14.90;99.90
3190;DHT22;1606;51.946;10.558;2022-11-15T00:23:37;15.00;99.90
3190;DHT22;1606;51.946;10.558;2022-11-15T00:26:05;15.00;99.90
3190;DHT22;1606;51.946;10.558;2022-11-15T00:28:33;14.90;99.90
3190;DHT22;1606;51.946;10.558;2022-11-15T00:31:02;15.00;99.90
3190;DHT22;1606;51.946;10.558;2022-11-15T00:33:32;15.10;99.90
3190;DHT22;1606;51.946;10.558;2022-11-15T00:36:01;15.10;99.90
3190;DHT22;1606;51.946;10.558;2022-11-15T00:38:31;15.10;99.90
3190;DHT22;1606;51.946;10.558;2022-11-15T00:41:00;15.20;99.90
3190;DHT22;1606;51.946;10.558;2022-11-15T00:43:35;15.10;99.90
3190;DHT22;1606;51.946;10.558;2022-11-15T00:46:04;14.90;99.90
3190;DHT22;1606;51.946;10.558;2022-11-15T00:48:34;14.90;99.90
3190;DHT22;1606;51.946;10.558;2022-11-15T00:51:02;15.00;99.90
3190;DHT22;1606;51.946;10.558;2022-11-15T00:53:30;14.90;99.90
3190;DHT22;1606;51.946;10.558;2022-11-15T00:55:59;14.90;99.90
3190;DHT22;1606;51.946;10.558;2022-11-15T00:58:27;14.90;99.90
3190;DHT22;1606;51.946;10.558;2022-11-15T01:00:55;15.00;99.90
3190;DHT22;1606;51.946;10.558;2022-11-15T01:03:24;14.80;99.90
3190;DHT22;1606;51.946;10.558;2022-11-15T01:05:52;14.80;99.90
3190;DHT22;1606;51.946;10.558;2022-11-15T01:08:19;14.90;99.90
3190;DHT22;1606;51.946;10.558;2022-11-15T01:10:47;15.00;99.90
3190;DHT22;1606;51.946;10.558;2022-11-15T01:13:15;15.10;99.90
3190;DHT22;1606;51.946;10.558;2022-11-15T01:15:43;15.00;99.90
3190;DHT22;1606;51.946;10.558;2022-11-15T01:18:11;14.80;99.90
3190;DHT22;1606;51.946;10.558;2022-11-15T01:20:41;14.90;99.90
3190;DHT22;1606;51.946;10.558;2022-11-15T01:23:09;14.90;99.90
3190;DHT22;1606;51.946;10.558;2022-11-15T01:25:37;14.90;99.90
3190;DHT22;1606;51.946;10.558;2022-11-15T01:28:05;14.80;99.90
3190;DHT22;1606;51.946;10.558;2022-11-15T01:30:33;14.60;99.90
3190;DHT22;1606;51.946;10.558;2022-11-15T01:33:03;14.70;99.90
3190;DHT22;1606;51.946;10.558;2022-11-15T01:35:30;14.70;99.90
3190;DHT22;1606;51.946;10.558;2022-11-15T01:38:00;14.90;99.90
3190;DHT22;1606;51.946;10.558;2022-11-15T01:40:27;14.90;99.90
3190;DHT22;1606;51.946;10.558;2022-11-15T01:42:55;14.70;99.90
3190;DHT22;1606;51.946;10.558;2022-11-15T01:45:23;14.80;99.90
3190;DHT22;1606;51.946;10.558;2022-11-15T01:47:52;15.00;99.90
3190;DHT22;1606;51.946;10.558;2022-11-15T01:50:24;15.10;99.90
3190;DHT22;1606;51.946;10.558;2022-11-15T01:52:55;15.20;99.90
3190;DHT22;1606;51.946;10.558;2022-11-15T01:55:26;15.40;99.90
3190;DHT22;1606;51.946;10.558;2022-11-15T01:57:57;15.40;99.90
3190;DHT22;1606;51.946;10.558;2022-11-15T02:00:26;15.30;99.90
3190;DHT22;1606;51.946;10.558;2022-11-15T02:02:54;15.30;99.90
3190;DHT22;1606;51.946;10.558;2022-11-15T02:05:22;15.20;99.90
3190;DHT22;1606;51.946;10.558;2022-11-15T02:07:50;15.30;99.90
3190;DHT22;1606;51.946;10.558;2022-11-15T02:10:20;15.10;99.90
3190;DHT22;1606;51.946;10.558;2022-11-15T02:12:50;15.20;99.90
3190;DHT22;1606;51.946;10.558;2022-11-15T02:15:18;15.30;99.90
3190;DHT22;1606;51.946;10.558;2022-11-15T02:18:03;15.30;99.90
3190;DHT22;1606;51.946;10.558;2022-11-15T02:20:50;15.40;99.90
3190;DHT22;1606;51.946;10.558;2022-11-15T02:29:32;15.60;99.90
3190;DHT22;1606;51.946;10.558;2022-11-15T02:32:13;15.50;99.90
3190;DHT22;1606;51.946;10.558;2022-11-15T02:34:57;15.80;99.90
3190;DHT22;1606;51.946;10.558;2022-11-15T02:37:34;15.70;99.90
3190;DHT22;1606;51.946;10.558;2022-11-15T02:40:10;15.80;99.90
3190;DHT22;1606;51.946;10.558;2022-11-15T02:42:43;15.90;99.90
3190;DHT22;1606;51.946;10.558;2022-11-15T02:45:37;16.00;99.90
3190;DHT22;1606;51.946;10.558;2022-11-15T02:48:09;15.90;99.90
3190;DHT22;1606;51.946;10.558;2022-11-15T02:50:38;16.00;99.90
3190;DHT22;1606;51.946;10.558;2022-11-15T02:53:08;16.00;99.90
3190;DHT22;1606;51.946;10.558;2022-11-15T02:55:38;16.00;99.90
3190;DHT22;1606;51.946;10.558;2022-11-15T02:58:38;16.00;99.90
3190;DHT22;1606;51.946;10.558;2022-11-15T03:01:15;16.10;99.90
3190;DHT22;1606;51.946;10.558;2022-11-15T03:03:58;16.10;99.90
3190;DHT22;1606;51.946;10.558;2022-11-15T03:06:32;16.10;99.90
3190;DHT22;1606;51.946;10.558;2022-11-15T03:09:04;16.10;99.90
3190;DHT22;1606;51.946;10.558;2022-11-15T03:11:37;16.10;99.90
3190;DHT22;1606;51.946;10.558;2022-11-15T03:14:14;16.10;99.90
3190;DHT22;1606;51.946;10.558;2022-11-15T03:16:48;16.00;99.90
3190;DHT22;1606;51.946;10.558;2022-11-15T03:19:25;16.00;99.90
3190;DHT22;1606;51.946;10.558;2022-11-15T03:21:57;15.80;99.90
3190;DHT22;1606;51.946;10.558;2022-11-15T03:24:29;15.70;99.90
3190;DHT22;1606;51.946;10.558;2022-11-15T03:26:59;15.80;99.90
3190;DHT22;1606;51.946;10.558;2022-11-15T03:29:32;15.80;99.90
3190;DHT22;1606;51.946;10.558;2022-11-15T03:32:03;15.90;99.90
3190;DHT22;1606;51.946;10.558;2022-11-15T03:34:37;15.90;99.90
3190;DHT22;1606;51.946;10.558;2022-11-15T03:37:07;15.90;99.90
3190;DHT22;1606;51.946;10.558;2022-11-15T03:39:36;16.00;99.90
3190;DHT22;1606;51.946;10.558;2022-11-15T03:42:13;16.00;99.90
3190;DHT22;1606;51.946;10.558;2022-11-15T03:44:48;16.00;99.90
3190;DHT22;1606;51.946;10.558;2022-11-15T03:47:22;15.80;99.90
3190;DHT22;1606;51.946;10.558;2022-11-15T03:49:57;15.80;99.90
3190;DHT22;1606;51.946;10.558;2022-11-15T03:52:31;15.70;99.90
3190;DHT22;1606;51.946;10.558;2022-11-15T03:55:01;15.50;99.90
3190;DHT22;1606;51.946;10.558;2022-11-15T03:57:29;15.50;99.90
3190;DHT22;1606;51.946;10.558;2022-11-15T03:59:57;15.50;99.90
3190;DHT22;1606;51.946;10.558;2022-11-15T04:02:25;15.50;99.90
3190;DHT22;1606;51.946;10.558;2022-11-15T04:04:54;15.70;99.90
3190;DHT22;1606;51.946;10.558;2022-11-15T04:07:22;15.70;99.90
3190;DHT22;1606;51.946;10.558;2022-11-15T04:09:50;15.80;99.90
3190;DHT22;1606;51.946;10.558;2022-11-15T04:12:31;15.70;99.90
3190;DHT22;1606;51.946;10.558;2022-11-15T04:15:00;15.70;99.90
3190;DHT22;1606;51.946;10.558;2022-11-15T04:17:38;15.70;99.90
3190;DHT22;1606;51.946;10.558;2022-11-15T04:20:10;15.50;99.90
3190;DHT22;1606;51.946;10.558;2022-11-15T04:22:57;15.50;99.90
3190;DHT22;1606;51.946;10.558;2022-11-15T04:25:44;15.50;99.90
3190;DHT22;1606;51.946;10.558;2022-11-15T04:28:12;15.40;99.90
3190;DHT22;1606;51.946;10.558;2022-11-15T04:30:40;15.50;99.90
3190;DHT22;1606;51.946;10.558;2022-11-15T04:33:08;15.50;99.90
3190;DHT22;1606;51.946;10.558;2022-11-15T04:35:37;15.50;99.90
3190;DHT22;1606;51.946;10.558;2022-11-15T04:38:06;15.40;99.90
3190;DHT22;1606;51.946;10.558;2022-11-15T04:40:34;15.40;99.90
3190;DHT22;1606;51.946;10.558;2022-11-15T04:43:02;15.40;99.90
3190;DHT22;1606;51.946;10.558;2022-11-15T04:45:30;15.60;99.90
3190;DHT22;1606;51.946;10.558;2022-11-15T04:47:58;15.40;99.90
3190;DHT22;1606;51.946;10.558;2022-11-15T04:50:26;15.10;99.90
3190;DHT22;1606;51.946;10.558;2022-11-15T04:52:55;15.20;99.90
3190;DHT22;1606;51.946;10.558;2022-11-15T04:55:23;15.30;99.90
3190;DHT22;1606;51.946;10.558;2022-11-15T04:57:57;15.20;99.90
3190;DHT22;1606;51.946;10.558;2022-11-15T05:00:27;15.30;99.90
3190;DHT22;1606;51.946;10.558;2022-11-15T05:02:55;15.40;99.90
3190;DHT22;1606;51.946;10.558;2022-11-15T05:05:43;15.30;99.90
3190;DHT22;1606;51.946;10.558;2022-11-15T05:08:12;15.10;99.90
3190;DHT22;1606;51.946;10.558;2022-11-15T05:10:40;14.90;99.90
3190;DHT22;1606;51.946;10.558;2022-11-15T05:13:08;15.10;99.90
3190;DHT22;1606;51.946;10.558;2022-11-15T05:15:35;15.20;99.90
3190;DHT22;1606;51.946;10.558;2022-11-15T05:18:03;15.20;99.90
3190;DHT22;1606;51.946;10.558;2022-11-15T05:20:31;15.20;99.90
3190;DHT22;1606;51.946;10.558;2022-11-15T05:22:59;15.30;99.90
3190;DHT22;1606;51.946;10.558;2022-11-15T05:25:28;15.30;99.90
3190;DHT22;1606;51.946;10.558;2022-11-15T05:27:57;15.30;99.90
3190;DHT22;1606;51.946;10.558;2022-11-15T05:30:24;15.20;99.90
3190;DHT22;1606;51.946;10.558;2022-11-15T05:32:53;15.10;99.90
3190;DHT22;1606;51.946;10.558;2022-11-15T05:35:27;15.00;99.90
3190;DHT22;1606;51.946;10.558;2022-11-15T05:37:57;15.10;99.90
3190;DHT22;1606;51.946;10.558;2022-11-15T05:40:25;14.90;99.90
3190;DHT22;1606;51.946;10.558;2022-11-15T05:42:55;14.90;99.90
3190;DHT22;1606;51.946;10.558;2022-11-15T05:45:23;15.10;99.90
3190;DHT22;1606;51.946;10.558;2022-11-15T05:47:54;15.20;99.90
3190;DHT22;1606;51.946;10.558;2022-11-15T05:50:24;15.10;99.90
3190;DHT22;1606;51.946;10.558;2022-11-15T05:52:54;15.00;99.90
3190;DHT22;1606;51.946;10.558;2022-11-15T05:55:29;15.00;99.90
3190;DHT22;1606;51.946;10.558;2022-11-15T05:57:59;14.90;99.90
3190;DHT22;1606;51.946;10.558;2022-11-15T06:00:28;14.90;99.90
3190;DHT22;1606;51.946;10.558;2022-11-15T06:02:56;14.90;99.90
3190;DHT22;1606;51.946;10.558;2022-11-15T06:05:24;14.70;99.90
3190;DHT22;1606;51.946;10.558;2022-11-15T06:07:52;14.70;99.90
3190;DHT22;1606;51.946;10.558;2022-11-15T06:10:20;14.60;99.90
3190;DHT22;1606;51.946;10.558;2022-11-15T06:12:57;14.60;99.90
3190;DHT22;1606;51.946;10.558;2022-11-15T06:15:26;14.40;99.90
3190;DHT22;1606;51.946;10.558;2022-11-15T06:17:56;14.20;99.90
3190;DHT22;1606;51.946;10.558;2022-11-15T06:20:25;14.10;99.90
3190;DHT22;1606;51.946;10.558;2022-11-15T06:22:56;14.00;99.90
3190;DHT22;1606;51.946;10.558;2022-11-15T06:25:25;14.00;99.90
3190;DHT22;1606;51.946;10.558;2022-11-15T06:27:53;13.80;99.90
3190;DHT22;1606;51.946;10.558;2022-11-15T06:30:24;13.50;99.90
3190;DHT22;1606;51.946;10.558;2022-11-15T06:32:58;13.30;99.90
3190;DHT22;1606;51.946;10.558;2022-11-15T06:35:29;13.00;99.90
3190;DHT22;1606;51.946;10.558;2022-11-15T06:38:02;13.00;99.90
3190;DHT22;1606;51.946;10.558;2022-11-15T06:40:33;12.70;99.90
3190;DHT22;1606;51.946;10.558;2022-11-15T06:43:03;12.50;99.90
3190;DHT22;1606;51.946;10.558;2022-11-15T06:45:32;12.60;99.90
3190;DHT22;1606;51.946;10.558;2022-11-15T06:48:00;12.50;99.90
3190;DHT22;1606;51.946;10.558;2022-11-15T06:50:28;12.50;99.90
3190;DHT22;1606;51.946;10.558;2022-11-15T06:53:01;12.30;99.90
3190;DHT22;1606;51.946;10.558;2022-11-15T06:55:29;12.10;99.90
3190;DHT22;1606;51.946;10.558;2022-11-15T06:57:57;12.20;99.90
3190;DHT22;1606;51.946;10.558;2022-11-15T07:00:25;12.20;99.90
3190;DHT22;1606;51.946;10.558;2022-11-15T07:02:54;12.10;99.90
3190;DHT22;1606;51.946;10.558;2022-11-15T07:05:22;12.20;99.90
3190;DHT22;1606;51.946;10.558;2022-11-15T07:07:52;12.30;99.90
3190;DHT22;1606;51.946;10.558;2022-11-15T07:10:21;12.40;99.90
3190;DHT22;1606;51.946;10.558;2022-11-15T07:12:51;12.40;99.90
3190;DHT22;1606;51.946;10.558;2022-11-15T07:15:22;12.30;99.90
3190;DHT22;1606;51.946;10.558;2022-11-15T07:17:50;12.50;99.90
3190;DHT22;1606;51.946;10.558;2022-11-15T07:20:19;12.60;99.90
3190;DHT22;1606;51.946;10.558;2022-11-15T07:22:47;12.60;99.90
3190;DHT22;1606;51.946;10.558;2022-11-15T07:25:15;12.70;99.90
3190;DHT22;1606;51.946;10.558;2022-11-15T07:27:43;12.70;99.90
3190;DHT22;1606;51.946;10.558;2022-11-15T07:30:12;12.70;99.90
3190;DHT22;1606;51.946;10.558;2022-11-15T07:32:41;12.70;99.90
3190;DHT22;1606;51.946;10.558;2022-11-15T07:35:09;12.80;99.90
3190;DHT22;1606;51.946;10.558;2022-11-15T07:37:38;13.00;99.90
3190;DHT22;1606;51.946;10.558;2022-11-15T07:40:07;13.00;99.90
3190;DHT22;1606;51.946;10.558;2022-11-15T07:42:35;13.00;99.90
3190;DHT22;1606;51.946;10.558;2022-11-15T07:45:23;13.10;99.90
3190;DHT22;1606;51.946;10.558;2022-11-15T07:47:52;13.10;99.90
3190;DHT22;1606;51.946;10.558;2022-11-15T07:50:22;12.80;99.90
3190;DHT22;1606;51.946;10.558;2022-11-15T07:52:54;13.10;99.90
3190;DHT22;1606;51.946;10.558;2022-11-15T07:55:23;13.40;99.90
3190;DHT22;1606;51.946;10.558;2022-11-15T07:57:51;13.70;99.90
3190;DHT22;1606;51.946;10.558;2022-11-15T08:00:19;13.90;99.90
3190;DHT22;1606;51.946;10.558;2022-11-15T08:02:47;14.10;99.90
3190;DHT22;1606;51.946;10.558;2022-11-15T08:05:15;14.50;99.90
3190;DHT22;1606;51.946;10.558;2022-11-15T08:07:43;14.70;99.90
3190;DHT22;1606;51.946;10.558;2022-11-15T08:10:12;15.00;99.90
3190;DHT22;1606;51.946;10.558;2022-11-15T08:12:41;15.20;99.90
3190;DHT22;1606;51.946;10.558;2022-11-15T08:15:10;15.40;99.90
3190;DHT22;1606;51.946;10.558;2022-11-15T08:17:38;15.60;99.90
3190;DHT22;1606;51.946;10.558;2022-11-15T08:20:07;15.80;99.90
3190;DHT22;1606;51.946;10.558;2022-11-15T08:22:35;15.90;99.90
3190;DHT22;1606;51.946;10.558;2022-11-15T08:25:03;16.00;99.90
3190;DHT22;1606;51.946;10.558;2022-11-15T08:27:32;16.10;99.90
3190;DHT22;1606;51.946;10.558;2022-11-15T08:30:00;16.30;99.90
3190;DHT22;1606;51.946;10.558;2022-11-15T08:32:30;16.50;99.90
3190;DHT22;1606;51.946;10.558;2022-11-15T08:34:59;16.50;99.90
3190;DHT22;1606;51.946;10.558;2022-11-15T08:37:27;16.60;99.90
3190;DHT22;1606;51.946;10.558;2022-11-15T08:39:55;16.80;99.90
3190;DHT22;1606;51.946;10.558;2022-11-15T08:46:08;16.80;99.90
3190;DHT22;1606;51.946;10.558;2022-11-15T08:49:50;17.00;99.90
3190;DHT22;1606;51.946;10.558;2022-11-15T08:52:43;17.00;99.90
3190;DHT22;1606;51.946;10.558;2022-11-15T08:55:40;17.10;99.90
3190;DHT22;1606;51.946;10.558;2022-11-15T08:58:34;17.10;99.90
3190;DHT22;1606;51.946;10.558;2022-11-15T09:01:29;17.20;99.90
3190;DHT22;1606;51.946;10.558;2022-11-15T09:04:04;17.10;99.90
3190;DHT22;1606;51.946;10.558;2022-11-15T09:06:34;17.00;99.90
3190;DHT22;1606;51.946;10.558;2022-11-15T09:09:22;16.90;99.90
3190;DHT22;1606;51.946;10.558;2022-11-15T09:12:06;17.10;99.90
3190;DHT22;1606;51.946;10.558;2022-11-15T09:14:49;17.10;99.90
3190;DHT22;1606;51.946;10.558;2022-11-15T09:17:31;17.20;99.90
3190;DHT22;1606;51.946;10.558;2022-11-15T09:20:08;17.10;99.90
3190;DHT22;1606;51.946;10.558;2022-11-15T09:23:27;17.20;99.90
3190;DHT22;1606;51.946;10.558;2022-11-15T09:26:13;17.30;99.90
3190;DHT22;1606;51.946;10.558;2022-11-15T09:28:59;17.40;99.90
3190;DHT22;1606;51.946;10.558;2022-11-15T09:31:29;17.60;99.90
3190;DHT22;1606;51.946;10.558;2022-11-15T09:34:03;17.60;99.90
3190;DHT22;1606;51.946;10.558;2022-11-15T09:36:37;17.50;99.90
3190;DHT22;1606;51.946;10.558;2022-11-15T09:39:29;17.60;99.90
3190;DHT22;1606;51.946;10.558;2022-11-15T09:42:22;17.70;99.90
3190;DHT22;1606;51.946;10.558;2022-11-15T09:45:10;17.70;99.90
3190;DHT22;1606;51.946;10.558;2022-11-15T09:48:25;17.70;99.90
3190;DHT22;1606;51.946;10.558;2022-11-15T09:51:12;17.80;99.90
3190;DHT22;1606;51.946;10.558;2022-11-15T09:54:05;17.70;99.90
3190;DHT22;1606;51.946;10.558;2022-11-15T09:57:18;17.60;99.90
3190;DHT22;1606;51.946;10.558;2022-11-15T10:00:10;17.60;99.90
3190;DHT22;1606;51.946;10.558;2022-11-15T10:03:12;17.50;99.90
3190;DHT22;1606;51.946;10.558;2022-11-15T10:05:55;17.60;99.90
3190;DHT22;1606;51.946;10.558;2022-11-15T10:08:40;17.70;99.90
3190;DHT22;1606;51.946;10.558;2022-11-15T10:11:19;17.80;99.90
3190;DHT22;1606;51.946;10.558;2022-11-15T10:14:13;17.90;99.90
3190;DHT22;1606;51.946;10.558;2022-11-15T10:17:18;18.00;99.90
3190;DHT22;1606;51.946;10.558;2022-11-15T10:20:02;18.30;99.90
3190;DHT22;1606;51.946;10.558;2022-11-15T10:22:56;18.40;99.90
3190;DHT22;1606;51.946;10.558;2022-11-15T10:25:33;18.60;99.70
3190;DHT22;1606;51.946;10.558;2022-11-15T10:28:17;18.80;99.60
3190;DHT22;1606;51.946;10.558;2022-11-15T10:31:21;19.00;98.50
3190;DHT22;1606;51.946;10.558;2022-11-15T10:34:12;19.10;98.10
3190;DHT22;1606;51.946;10.558;2022-11-15T10:37:06;19.30;97.90
3190;DHT22;1606;51.946;10.558;2022-11-15T10:39:54;19.50;97.80
3190;DHT22;1606;51.946;10.558;2022-11-15T10:42:32;19.60;97.40
3190;DHT22;1606;51.946;10.558;2022-11-15T10:45:29;19.70;97.20
3190;DHT22;1606;51.946;10.558;2022-11-15T10:48:22;19.80;97.30
3190;DHT22;1606;51.946;10.558;2022-11-15T10:51:22;19.90;96.90
3190;DHT22;1606;51.946;10.558;2022-11-15T10:54:08;20.00;97.10
3190;DHT22;1606;51.946;10.558;2022-11-15T10:56:55;20.20;96.30
3190;DHT22;1606;51.946;10.558;2022-11-15T10:59:36;19.90;96.50
3190;DHT22;1606;51.946;10.558;2022-11-15T11:02:29;19.80;97.20
3190;DHT22;1606;51.946;10.558;2022-11-15T11:05:31;20.10;96.50
3190;DHT22;1606;51.946;10.558;2022-11-15T11:08:22;19.80;96.00
3190;DHT22;1606;51.946;10.558;2022-11-15T11:11:19;19.90;96.60
3190;DHT22;1606;51.946;10.558;2022-11-15T11:14:12;20.00;96.00
3190;DHT22;1606;51.946;10.558;2022-11-15T11:16:53;20.00;95.90
3190;DHT22;1606;51.946;10.558;2022-11-15T11:20:02;19.80;96.10
3190;DHT22;1606;51.946;10.558;2022-11-15T11:23:03;19.80;96.40
3190;DHT22;1606;51.946;10.558;2022-11-15T11:26:13;19.80;96.50
3190;DHT22;1606;51.946;10.558;2022-11-15T11:28:53;19.80;96.50
3190;DHT22;1606;51.946;10.558;2022-11-15T11:31:47;19.60;97.10
3190;DHT22;1606;51.946;10.558;2022-11-15T11:34:39;19.50;97.30
3190;DHT22;1606;51.946;10.558;2022-11-15T11:37:36;19.60;97.20
3190;DHT22;1606;51.946;10.558;2022-11-15T11:40:30;19.80;96.70
3190;DHT22;1606;51.946;10.558;2022-11-15T11:43:25;19.80;96.60
3190;DHT22;1606;51.946;10.558;2022-11-15T11:46:28;19.70;97.20
3190;DHT22;1606;51.946;10.558;2022-11-15T11:49:23;19.80;96.40
3190;DHT22;1606;51.946;10.558;2022-11-15T11:52:02;19.70;96.40
3190;DHT22;1606;51.946;10.558;2022-11-15T11:54:52;19.50;96.40
3190;DHT22;1606;51.946;10.558;2022-11-15T11:57:38;19.40;96.60
3190;DHT22;1606;51.946;10.558;2022-11-15T12:00:18;19.30;97.40
3190;DHT22;1606;51.946;10.558;2022-11-15T12:03:07;19.50;97.20
3190;DHT22;1606;51.946;10.558;2022-11-15T12:06:00;19.60;97.20
3190;DHT22;1606;51.946;10.558;2022-11-15T12:08:47;19.60;96.50
3190;DHT22;1606;51.946;10.558;2022-11-15T12:11:29;19.40;96.90
3190;DHT22;1606;51.946;10.558;2022-11-15T12:14:16;19.40;96.00
3190;DHT22;1606;51.946;10.558;2022-11-15T12:16:54;19.30;96.60
3190;DHT22;1606;51.946;10.558;2022-11-15T12:19:31;19.10;96.70
3190;DHT22;1606;51.946;10.558;2022-11-15T12:22:38;19.10;96.60
3190;DHT22;1606;51.946;10.558;2022-11-15T12:25:20;19.00;97.00
3190;DHT22;1606;51.946;10.558;2022-11-15T12:28:12;19.10;97.00
3190;DHT22;1606;51.946;10.558;2022-11-15T12:30:53;19.20;97.20
3190;DHT22;1606;51.946;10.558;2022-11-15T12:33:33;19.10;97.70
3190;DHT22;1606;51.946;10.558;2022-11-15T12:36:31;18.60;99.50
3190;DHT22;1606;51.946;10.558;2022-11-15T12:39:16;18.00;99.90
3190;DHT22;1606;51.946;10.558;2022-11-15T12:45:37;18.00;99.90
3190;DHT22;1606;51.946;10.558;2022-11-15T12:48:48;18.10;99.90
3190;DHT22;1606;51.946;10.558;2022-11-15T12:51:19;17.90;99.90
3190;DHT22;1606;51.946;10.558;2022-11-15T12:57:42;18.30;99.90
3190;DHT22;1606;51.946;10.558;2022-11-15T13:00:46;18.40;99.90
3190;DHT22;1606;51.946;10.558;2022-11-15T13:03:24;18.40;99.90
3190;DHT22;1606;51.946;10.558;2022-11-15T13:06:09;18.40;99.90
3190;DHT22;1606;51.946;10.558;2022-11-15T13:08:47;18.50;99.90
3190;DHT22;1606;51.946;10.558;2022-11-15T13:11:52;18.40;99.90
3190;DHT22;1606;51.946;10.558;2022-11-15T13:14:49;18.50;99.90
3190;DHT22;1606;51.946;10.558;2022-11-15T13:17:30;18.50;99.90
3190;DHT22;1606;51.946;10.558;2022-11-15T13:20:27;18.30;99.90
3190;DHT22;1606;51.946;10.558;2022-11-15T13:23:07;18.30;99.90
3190;DHT22;1606;51.946;10.558;2022-11-15T13:26:13;18.30;99.90
3190;DHT22;1606;51.946;10.558;2022-11-15T13:28:48;18.30;99.90
3190;DHT22;1606;51.946;10.558;2022-11-15T13:31:35;18.20;99.90
3190;DHT22;1606;51.946;10.558;2022-11-15T13:34:22;18.30;99.90
3190;DHT22;1606;51.946;10.558;2022-11-15T13:37:30;18.20;99.90
3190;DHT22;1606;51.946;10.558;2022-11-15T13:40:18;18.30;99.90
3190;DHT22;1606;51.946;10.558;2022-11-15T13:42:48;18.20;99.90
3190;DHT22;1606;51.946;10.558;2022-11-15T13:45:20;18.30;99.90
3190;DHT22;1606;51.946;10.558;2022-11-15T13:47:55;18.30;99.90
3190;DHT22;1606;51.946;10.558;2022-11-15T13:50:34;18.40;99.90
3190;DHT22;1606;51.946;10.558;2022-11-15T13:53:06;18.30;99.90
3190;DHT22;1606;51.946;10.558;2022-11-15T13:55:35;18.20;99.90
3190;DHT22;1606;51.946;10.558;2022-11-15T13:58:11;18.20;99.90
3190;DHT22;1606;51.946;10.558;2022-11-15T14:00:42;18.20;99.90
3190;DHT22;1606;51.946;10.558;2022-11-15T14:03:24;18.10;99.90
3190;DHT22;1606;51.946;10.558;2022-11-15T14:06:17;18.20;99.90
3190;DHT22;1606;51.946;10.558;2022-11-15T14:09:15;18.10;99.90
3190;DHT22;1606;51.946;10.558;2022-11-15T14:11:52;18.10;99.90
3190;DHT22;1606;51.946;10.558;2022-11-15T14:14:22;18.00;99.90
3190;DHT22;1606;51.946;10.558;2022-11-15T14:16:56;17.90;99.90
3190;DHT22;1606;51.946;10.558;2022-11-15T14:19:38;17.90;99.90
3190;DHT22;1606;51.946;10.558;2022-11-15T14:22:21;17.80;99.90
3190;DHT22;1606;51.946;10.558;2022-11-15T14:25:25;17.70;99.90
3190;DHT22;1606;51.946;10.558;2022-11-15T14:28:12;17.60;99.90
3190;DHT22;1606;51.946;10.558;2022-11-15T14:30:45;17.50;99.90
3190;DHT22;1606;51.946;10.558;2022-11-15T14:33:54;17.60;99.90
3190;DHT22;1606;51.946;10.558;2022-11-15T14:36:25;17.70;99.90
3190;DHT22;1606;51.946;10.558;2022-11-15T14:38:57;17.50;99.90
3190;DHT22;1606;51.946;10.558;2022-11-15T14:41:37;17.40;99.90
3190;DHT22;1606;51.946;10.558;2022-11-15T14:44:09;17.40;99.90
3190;DHT22;1606;51.946;10.558;2022-11-15T14:46:39;17.40;99.90
3190;DHT22;1606;51.946;10.558;2022-11-15T14:49:16;17.50;99.90
3190;DHT22;1606;51.946;10.558;2022-11-15T14:51:55;17.60;99.90
3190;DHT22;1606;51.946;10.558;2022-11-15T14:54:43;17.60;99.90
3190;DHT22;1606;51.946;10.558;2022-11-15T14:57:13;17.70;99.90
3190;DHT22;1606;51.946;10.558;2022-11-15T14:59:47;17.60;99.90
3190;DHT22;1606;51.946;10.558;2022-11-15T15:02:23;17.50;99.90
3190;DHT22;1606;51.946;10.558;2022-11-15T15:04:54;17.60;99.90
3190;DHT22;1606;51.946;10.558;2022-11-15T15:07:26;17.50;99.90
3190;DHT22;1606;51.946;10.558;2022-11-15T15:09:58;17.60;99.90
3190;DHT22;1606;51.946;10.558;2022-11-15T15:12:51;17.50;99.90
3190;DHT22;1606;51.946;10.558;2022-11-15T15:15:24;17.50;99.90
3190;DHT22;1606;51.946;10.558;2022-11-15T15:17:54;17.60;99.90
3190;DHT22;1606;51.946;10.558;2022-11-15T15:20:25;17.50;99.90
3190;DHT22;1606;51.946;10.558;2022-11-15T15:23:01;17.40;99.90
3190;DHT22;1606;51.946;10.558;2022-11-15T15:25:32;17.40;99.90
3190;DHT22;1606;51.946;10.558;2022-11-15T15:28:19;17.40;99.90
3190;DHT22;1606;51.946;10.558;2022-11-15T15:31:04;17.40;99.90
3190;DHT22;1606;51.946;10.558;2022-11-15T15:33:39;17.20;99.90
3190;DHT22;1606;51.946;10.558;2022-11-15T15:36:26;17.20;99.90
3190;DHT22;1606;51.946;10.558;2022-11-15T15:38:57;17.10;99.90
3190;DHT22;1606;51.946;10.558;2022-11-15T15:41:28;17.10;99.90
3190;DHT22;1606;51.946;10.558;2022-11-15T15:44:01;17.00;99.90
3190;DHT22;1606;51.946;10.558;2022-11-15T15:46:31;16.90;99.90
3190;DHT22;1606;51.946;10.558;2022-11-15T15:49:03;17.00;99.90
3190;DHT22;1606;51.946;10.558;2022-11-15T15:51:43;17.10;99.40
3190;DHT22;1606;51.946;10.558;2022-11-15T15:54:26;17.10;99.30
3190;DHT22;1606;51.946;10.558;2022-11-15T15:57:13;17.00;99.20
3190;DHT22;1606;51.946;10.558;2022-11-15T15:59:44;16.80;99.40
3190;DHT22;1606;51.946;10.558;2022-11-15T16:02:19;16.70;99.40
3190;DHT22;1606;51.946;10.558;2022-11-15T16:04:50;16.60;99.60
3190;DHT22;1606;51.946;10.558;2022-11-15T16:07:25;16.60;99.50
3190;DHT22;1606;51.946;10.558;2022-11-15T16:10:04;16.60;99.60
3190;DHT22;1606;51.946;10.558;2022-11-15T16:12:47;16.60;99.60
3190;DHT22;1606;51.946;10.558;2022-11-15T16:15:20;16.60;99.60
3190;DHT22;1606;51.946;10.558;2022-11-15T16:17:52;16.40;99.80
3190;DHT22;1606;51.946;10.558;2022-11-15T16:20:35;16.40;99.90
3190;DHT22;1606;51.946;10.558;2022-11-15T16:23:09;16.50;99.90
3190;DHT22;1606;51.946;10.558;2022-11-15T16:25:44;16.60;99.80
3190;DHT22;1606;51.946;10.558;2022-11-15T16:28:21;16.50;99.90
3190;DHT22;1606;51.946;10.558;2022-11-15T16:31:02;16.40;99.90
3190;DHT22;1606;51.946;10.558;2022-11-15T16:33:59;16.50;99.90
3190;DHT22;1606;51.946;10.558;2022-11-15T16:36:35;16.50;99.90
3190;DHT22;1606;51.946;10.558;2022-11-15T16:39:22;16.60;99.90
3190;DHT22;1606;51.946;10.558;2022-11-15T16:42:00;16.50;99.90
3190;DHT22;1606;51.946;10.558;2022-11-15T16:44:47;16.40;99.90
3190;DHT22;1606;51.946;10.558;2022-11-15T16:47:26;16.40;99.90
3190;DHT22;1606;51.946;10.558;2022-11-15T16:50:01;16.20;99.90
3190;DHT22;1606;51.946;10.558;2022-11-15T16:52:40;16.30;99.90
3190;DHT22;1606;51.946;10.558;2022-11-15T16:55:29;16.20;99.90
3190;DHT22;1606;51.946;10.558;2022-11-15T17:00:53;16.40;99.90
3190;DHT22;1606;51.946;10.558;2022-11-15T17:03:29;16.30;99.90
3190;DHT22;1606;51.946;10.558;2022-11-15T17:06:09;16.20;99.90
3190;DHT22;1606;51.946;10.558;2022-11-15T17:08:40;16.10;99.90